This is the latest recevied weather packets stored in our database for station/object BMCB-2. If no packets are shown the sender has not sent any weather packets the latest 10 day(s).
| Time | Temp. | Humidity | Pressure | Rain* | Wind** | Luminosity | Snow |
|---|---|---|---|---|---|---|---|
| 1777377056 | 16.67° C | 48% | 1019.5 hPa | 0 mm | - | 670 W/m² | - |
| 1777367456 | 11.67° C | 65% | 1020.9 hPa | 0 mm | - | 484 W/m² | - |
| 1777364455 | 10.56° C | 69% | 1021 hPa | 0 mm | - | 234 W/m² | - |
| 1777362656 | 9.44° C | 69% | 1020.8 hPa | 0 mm | - | 174 W/m² | - |
| 1777357855 | 8.89° C | 71% | 1020.8 hPa | 0 mm | - | 228 W/m² | - |
| 1777357256 | 8.33° C | 71% | 1020.8 hPa | 0 mm | - | 216 W/m² | - |
| 1777356056 | 7.78° C | 73% | 1020.7 hPa | 0 mm | - | 118 W/m² | - |
| 1777351856 | 6.67° C | 73% | 1020.4 hPa | 0 mm | - | 14 W/m² | - |
| 1777351257 | 7.22° C | 72% | 1020.4 hPa | 0 mm | - | 6 W/m² | - |
| 1777343453 | 8.33° C | 66% | 1021 hPa | 0 mm | - | 0 W/m² | - |
| 1777341651 | 8.89° C | 65% | 1021 hPa | 0 mm | - | 0 W/m² | - |
| 1777339255 | 8.89° C | 66% | 1021.2 hPa | 0 mm | - | 0 W/m² | - |
| 1777336254 | 8.33° C | 68% | 1021.4 hPa | 0 mm | - | 0 W/m² | - |
| 1777332662 | 10.56° C | 57% | 1021.3 hPa | 0 mm | - | 0 W/m² | - |
| 1777330262 | 10.56° C | 55% | 1021.2 hPa | 0 mm | - | 0 W/m² | - |
| 1777328460 | 10.56° C | 54% | 1021.3 hPa | 0 mm | - | 0 W/m² | - |
| 1777327864 | 10.56° C | 53% | 1021.3 hPa | 0 mm | - | 0 W/m² | - |
| 1777326068 | 9.44° C | 61% | 1021.3 hPa | 0 mm | - | 0 W/m² | - |
| 1777315261 | 15.56° C | 41% | 1020.9 hPa | 0 mm | - | 18 W/m² | - |
| 1777300258 | 17.78° C | 34% | 1022.1 hPa | 0 mm | - | 576 W/m² | - |
| 1777299657 | 17.78° C | 33% | 1022.1 hPa | 0 mm | - | 574 W/m² | - |
| 1777296059 | 17.22° C | 36% | 1022.6 hPa | 0 mm | - | 670 W/m² | - |
| 1777293057 | 16.67° C | 39% | 1023 hPa | 0 mm | - | 718 W/m² | - |
| 1777285857 | 14.44° C | 44% | 1024.2 hPa | 0 mm | - | 430 W/m² | - |
| 1777277455 | 11.11° C | 61% | 1024.9 hPa | 0 mm | - | 378 W/m² | - |
* Rain latest hour (hover to see other rain measurements)
** Current wind speed in m/s (hover to see current wind gust speed)